Main page
METAR-TAF:

METAR-TAF

Airports :

Sukkur, Pakistan

Sukkur Airport

latitude: 27-43-19N, longitude: 068-47-31E, elevation: 60 m

Current weather observation

The report was made 57 minutes ago, at 10:00 UTC
Wind 4 kt from the South/Southwest
Temperature 20°C
Humidity 43%
Pressure 1022 hPa
Visibility: 3000 m
Scattered clouds at a height of 4000 ft
Scattered clouds at a height of 10000 ft
haze

METAR: OPSK 181000Z 21004KT 3000 HZ SCT040 SCT100 20/07 Q1022 NOSIG

Time: 15:57 (10:57 UTC)

Forecast

The report was made 7 hours and 27 minutes ago, at 03:30 UTC
Forecast valid from 18 at 06 UTC to 19 at 06 UTC
Wind 3 kt from variable directions with gusts up to 15 kt
Visibility: 1500 m
Few clouds at a height of 4000 ft
Scattered clouds at a height of 10000 ft
haze, mist
Temporary
from 19 at 00 UTC to 19 at 04 UTC
Wind kt from the North
Visibility: 0500 m
fog

TAF: OPSK 180330Z 1806/1906 04005G15KT 4000 HZ FEW040 SCT100 181900 VRB03KT 1500 BR NSC TEMPO 1900/1904 00000KT 0500 FG VV///

Weather observations and forecasts of more than 4000 airports (METAR and TAF reports).

The available stations are represented by yellow and red dots on the map.

Hover mouse over dot to see the name of the station.

Then click to see weather observations and forecasts.

To change the map : click on the green buttons with a black cross to zoom in, on the green button with a dash to zoom out, or on the green arrows for adjacent maps.


METAR-TAF: